sensor_id;sensor_type;location;lat;lon;timestamp;pressure;altitude;pressure_sealevel;temperature;humidity
83635;BME280;73596;49.482;11.238;2024-03-23T00:52:31;97281.69;;;7.48;83.27
83635;BME280;73596;49.482;11.238;2024-03-23T00:54:56;97273.84;;;7.50;83.71
83635;BME280;73596;49.482;11.238;2024-03-23T00:57:22;97266.56;;;7.44;83.39
83635;BME280;73596;49.482;11.238;2024-03-23T00:59:47;97257.94;;;7.45;83.55
83635;BME280;73596;49.482;11.238;2024-03-23T01:02:12;97254.72;;;7.54;82.53
83635;BME280;73596;49.482;11.238;2024-03-23T01:04:37;97250.50;;;7.53;82.53
83635;BME280;73596;49.482;11.238;2024-03-23T01:07:32;97244.06;;;7.47;82.78
83635;BME280;73596;49.482;11.238;2024-03-23T01:09:57;97240.38;;;7.39;83.36
83635;BME280;73596;49.482;11.238;2024-03-23T01:12:23;97236.63;;;7.32;82.88
83635;BME280;73596;49.482;11.238;2024-03-23T01:14:48;97231.22;;;7.24;83.42
83635;BME280;73596;49.482;11.238;2024-03-23T01:17:13;97238.41;;;7.19;83.14
83635;BME280;73596;49.482;11.238;2024-03-23T01:19:39;97237.84;;;7.15;84.09
83635;BME280;73596;49.482;11.238;2024-03-23T01:22:04;97231.72;;;7.05;83.32
83635;BME280;73596;49.482;11.238;2024-03-23T01:24:30;97227.13;;;6.97;83.46
83635;BME280;73596;49.482;11.238;2024-03-23T01:26:55;97223.84;;;6.95;83.61
83635;BME280;73596;49.482;11.238;2024-03-23T01:29:20;97224.63;;;6.96;83.56
83635;BME280;73596;49.482;11.238;2024-03-23T01:31:45;97215.19;;;6.96;83.38
83635;BME280;73596;49.482;11.238;2024-03-23T01:34:11;97210.06;;;6.96;83.53
83635;BME280;73596;49.482;11.238;2024-03-23T01:36:36;97214.50;;;6.94;83.89
83635;BME280;73596;49.482;11.238;2024-03-23T01:39:01;97209.69;;;6.90;83.55
83635;BME280;73596;49.482;11.238;2024-03-23T01:41:26;97217.19;;;6.93;84.02
83635;BME280;73596;49.482;11.238;2024-03-23T01:43:54;97217.88;;;6.95;83.78
83635;BME280;73596;49.482;11.238;2024-03-23T01:46:20;97211.44;;;6.89;83.44
83635;BME280;73596;49.482;11.238;2024-03-23T01:48:45;97208.16;;;6.87;83.77
83635;BME280;73596;49.482;11.238;2024-03-23T01:51:12;97205.66;;;6.86;83.98
83635;BME280;73596;49.482;11.238;2024-03-23T01:53:38;97199.75;;;6.85;84.16
83635;BME280;73596;49.482;11.238;2024-03-23T01:56:03;97189.91;;;6.79;84.67
83635;BME280;73596;49.482;11.238;2024-03-23T01:58:28;97200.50;;;6.75;84.53
83635;BME280;73596;49.482;11.238;2024-03-23T02:00:54;97187.88;;;6.72;84.65
83635;BME280;73596;49.482;11.238;2024-03-23T02:03:23;97183.88;;;6.68;84.27
83635;BME280;73596;49.482;11.238;2024-03-23T02:05:50;97176.59;;;6.62;84.77
83635;BME280;73596;49.482;11.238;2024-03-23T02:08:17;97179.16;;;6.62;85.38
83635;BME280;73596;49.482;11.238;2024-03-23T02:10:43;97173.41;;;6.58;85.38
83635;BME280;73596;49.482;11.238;2024-03-23T02:13:08;97171.69;;;6.59;86.08
83635;BME280;73596;49.482;11.238;2024-03-23T02:15:33;97169.72;;;6.62;85.99
83635;BME280;73596;49.482;11.238;2024-03-23T02:17:59;97160.19;;;6.64;85.55
83635;BME280;73596;49.482;11.238;2024-03-23T02:20:24;97153.88;;;6.68;85.29
83635;BME280;73596;49.482;11.238;2024-03-23T02:22:55;97152.56;;;6.75;85.13
83635;BME280;73596;49.482;11.238;2024-03-23T02:25:20;97141.34;;;6.76;85.00
83635;BME280;73596;49.482;11.238;2024-03-23T02:27:46;97148.94;;;6.78;85.28
83635;BME280;73596;49.482;11.238;2024-03-23T02:30:11;97138.91;;;6.75;85.42
83635;BME280;73596;49.482;11.238;2024-03-23T02:32:36;97142.88;;;6.79;85.38
83635;BME280;73596;49.482;11.238;2024-03-23T02:35:02;97134.47;;;6.77;85.41
83635;BME280;73596;49.482;11.238;2024-03-23T02:37:27;97125.25;;;6.74;84.84
83635;BME280;73596;49.482;11.238;2024-03-23T02:39:52;97125.25;;;6.74;85.11
83635;BME280;73596;49.482;11.238;2024-03-23T02:42:18;97104.72;;;6.74;85.27
83635;BME280;73596;49.482;11.238;2024-03-23T02:44:44;97104.72;;;6.74;85.29
83635;BME280;73596;49.482;11.238;2024-03-23T02:47:10;97098.66;;;6.75;85.52
83635;BME280;73596;49.482;11.238;2024-03-23T02:49:35;97100.19;;;6.78;85.67
83635;BME280;73596;49.482;11.238;2024-03-23T02:52:00;97092.50;;;6.78;85.21
83635;BME280;73596;49.482;11.238;2024-03-23T02:54:26;97100.78;;;6.81;85.41
83635;BME280;73596;49.482;11.238;2024-03-23T02:56:51;97091.22;;;6.83;85.67
83635;BME280;73596;49.482;11.238;2024-03-23T02:59:16;97097.06;;;6.85;85.90
83635;BME280;73596;49.482;11.238;2024-03-23T03:01:41;97082.72;;;6.83;85.67
83635;BME280;73596;49.482;11.238;2024-03-23T03:04:07;97081.78;;;6.84;85.14
83635;BME280;73596;49.482;11.238;2024-03-23T03:06:32;97075.94;;;6.82;85.84
83635;BME280;73596;49.482;11.238;2024-03-23T03:08:57;97075.50;;;6.88;85.76
83635;BME280;73596;49.482;11.238;2024-03-23T03:11:23;97057.28;;;6.91;85.97
83635;BME280;73596;49.482;11.238;2024-03-23T03:13:48;97054.41;;;6.95;85.41
83635;BME280;73596;49.482;11.238;2024-03-23T03:16:13;97049.03;;;6.98;84.77
83635;BME280;73596;49.482;11.238;2024-03-23T03:18:39;97048.00;;;7.01;85.21
83635;BME280;73596;49.482;11.238;2024-03-23T03:21:07;97052.00;;;7.05;85.25
83635;BME280;73596;49.482;11.238;2024-03-23T03:23:38;97037.50;;;7.04;85.59
83635;BME280;73596;49.482;11.238;2024-03-23T03:26:05;97035.75;;;7.04;85.91
83635;BME280;73596;49.482;11.238;2024-03-23T03:28:33;97031.44;;;7.05;85.50
83635;BME280;73596;49.482;11.238;2024-03-23T03:31:00;97045.91;;;7.06;85.01
83635;BME280;73596;49.482;11.238;2024-03-23T03:33:29;97047.78;;;7.04;85.68
83635;BME280;73596;49.482;11.238;2024-03-23T03:35:54;97038.09;;;7.08;85.92
83635;BME280;73596;49.482;11.238;2024-03-23T03:38:20;97029.94;;;7.14;86.07
83635;BME280;73596;49.482;11.238;2024-03-23T03:40:45;97021.19;;;7.16;84.94
83635;BME280;73596;49.482;11.238;2024-03-23T03:43:11;97007.66;;;7.14;85.91
83635;BME280;73596;49.482;11.238;2024-03-23T03:45:36;97013.38;;;7.18;86.19
83635;BME280;73596;49.482;11.238;2024-03-23T03:48:02;97007.44;;;7.17;85.60
83635;BME280;73596;49.482;11.238;2024-03-23T03:50:27;97000.63;;;7.16;85.22
83635;BME280;73596;49.482;11.238;2024-03-23T03:52:52;96997.59;;;7.11;86.09
83635;BME280;73596;49.482;11.238;2024-03-23T03:55:17;96990.63;;;7.13;86.28
83635;BME280;73596;49.482;11.238;2024-03-23T03:57:43;96992.03;;;7.17;86.20
83635;BME280;73596;49.482;11.238;2024-03-23T04:00:09;96990.97;;;7.20;86.00
83635;BME280;73596;49.482;11.238;2024-03-23T04:02:38;96987.94;;;7.15;86.47
83635;BME280;73596;49.482;11.238;2024-03-23T04:05:03;96972.53;;;7.15;86.48
83635;BME280;73596;49.482;11.238;2024-03-23T04:07:29;96968.00;;;7.18;86.48
83635;BME280;73596;49.482;11.238;2024-03-23T04:09:54;96950.72;;;7.20;86.15
83635;BME280;73596;49.482;11.238;2024-03-23T04:12:19;96954.78;;;7.23;86.28
83635;BME280;73596;49.482;11.238;2024-03-23T04:14:45;96944.63;;;7.21;85.80
83635;BME280;73596;49.482;11.238;2024-03-23T04:17:10;96939.03;;;7.27;85.51
83635;BME280;73596;49.482;11.238;2024-03-23T04:19:35;96921.06;;;7.27;85.68
83635;BME280;73596;49.482;11.238;2024-03-23T04:22:01;96923.16;;;7.33;84.79
83635;BME280;73596;49.482;11.238;2024-03-23T04:24:27;96910.66;;;7.40;84.26
83635;BME280;73596;49.482;11.238;2024-03-23T04:26:52;96925.13;;;7.52;84.06
83635;BME280;73596;49.482;11.238;2024-03-23T04:29:18;96919.28;;;7.61;83.48
83635;BME280;73596;49.482;11.238;2024-03-23T04:31:43;96908.66;;;7.65;81.98
83635;BME280;73596;49.482;11.238;2024-03-23T04:34:08;96926.63;;;7.77;81.24
83635;BME280;73596;49.482;11.238;2024-03-23T04:36:34;96925.44;;;7.81;81.68
83635;BME280;73596;49.482;11.238;2024-03-23T04:38:59;96924.47;;;7.93;81.78
83635;BME280;73596;49.482;11.238;2024-03-23T04:41:25;96926.44;;;8.00;80.88
83635;BME280;73596;49.482;11.238;2024-03-23T04:43:51;96920.00;;;8.06;80.54
83635;BME280;73596;49.482;11.238;2024-03-23T04:46:16;96916.00;;;8.13;80.41
83635;BME280;73596;49.482;11.238;2024-03-23T04:48:41;96919.97;;;8.17;80.12
83635;BME280;73596;49.482;11.238;2024-03-23T04:51:06;96897.63;;;8.17;79.76
83635;BME280;73596;49.482;11.238;2024-03-23T04:53:32;96912.44;;;8.25;79.40
83635;BME280;73596;49.482;11.238;2024-03-23T04:55:58;96895.38;;;8.24;79.03
83635;BME280;73596;49.482;11.238;2024-03-23T04:58:27;96920.28;;;8.35;79.17
83635;BME280;73596;49.482;11.238;2024-03-23T05:00:56;96901.53;;;8.44;78.79
83635;BME280;73596;49.482;11.238;2024-03-23T05:03:22;96911.56;;;8.47;78.19
83635;BME280;73596;49.482;11.238;2024-03-23T05:05:48;96891.28;;;8.53;77.98
83635;BME280;73596;49.482;11.238;2024-03-23T05:08:14;96897.63;;;8.49;78.13
83635;BME280;73596;49.482;11.238;2024-03-23T05:10:41;96895.44;;;8.45;78.63
83635;BME280;73596;49.482;11.238;2024-03-23T05:13:06;96895.44;;;8.45;78.28
83635;BME280;73596;49.482;11.238;2024-03-23T05:15:31;96903.97;;;8.45;78.29
83635;BME280;73596;49.482;11.238;2024-03-23T05:17:57;96903.28;;;8.43;78.16
83635;BME280;73596;49.482;11.238;2024-03-23T05:20:22;96898.13;;;8.43;78.21
83635;BME280;73596;49.482;11.238;2024-03-23T05:22:47;96895.78;;;8.40;78.93
83635;BME280;73596;49.482;11.238;2024-03-23T05:25:13;96881.44;;;8.38;78.39
83635;BME280;73596;49.482;11.238;2024-03-23T05:27:38;96884.44;;;8.43;78.83
83635;BME280;73596;49.482;11.238;2024-03-23T05:30:04;96883.50;;;8.44;78.42
83635;BME280;73596;49.482;11.238;2024-03-23T05:32:31;96883.50;;;8.44;78.67
83635;BME280;73596;49.482;11.238;2024-03-23T05:34:56;96867.16;;;8.45;78.74
83635;BME280;73596;49.482;11.238;2024-03-23T05:37:22;96869.59;;;8.46;79.08
83635;BME280;73596;49.482;11.238;2024-03-23T05:39:48;96865.25;;;8.47;78.54
83635;BME280;73596;49.482;11.238;2024-03-23T05:42:16;96866.63;;;8.51;78.56
83635;BME280;73596;49.482;11.238;2024-03-23T05:44:45;96868.81;;;8.55;78.95
83635;BME280;73596;49.482;11.238;2024-03-23T05:47:11;96851.50;;;8.57;78.51
83635;BME280;73596;49.482;11.238;2024-03-23T05:49:38;96860.59;;;8.61;78.37
83635;BME280;73596;49.482;11.238;2024-03-23T05:52:03;96857.25;;;8.70;78.66
83635;BME280;73596;49.482;11.238;2024-03-23T05:54:29;96858.94;;;8.81;78.40
83635;BME280;73596;49.482;11.238;2024-03-23T05:56:55;96855.88;;;8.87;78.40
83635;BME280;73596;49.482;11.238;2024-03-23T05:59:21;96864.56;;;8.95;77.95
83635;BME280;73596;49.482;11.238;2024-03-23T06:01:49;96855.09;;;8.96;77.79
83635;BME280;73596;49.482;11.238;2024-03-23T06:04:15;96858.91;;;9.02;77.49
83635;BME280;73596;49.482;11.238;2024-03-23T06:06:40;96855.94;;;9.06;78.03
83635;BME280;73596;49.482;11.238;2024-03-23T06:09:05;96858.94;;;9.11;77.46
83635;BME280;73596;49.482;11.238;2024-03-23T06:11:30;96858.84;;;9.13;76.77
83635;BME280;73596;49.482;11.238;2024-03-23T06:13:56;96853.94;;;9.10;77.11
83635;BME280;73596;49.482;11.238;2024-03-23T06:16:21;96859.34;;;9.07;78.03
83635;BME280;73596;49.482;11.238;2024-03-23T06:18:52;96870.22;;;9.10;77.44
83635;BME280;73596;49.482;11.238;2024-03-23T06:21:18;96878.63;;;9.12;77.73
83635;BME280;73596;49.482;11.238;2024-03-23T06:23:44;96882.06;;;9.22;77.62
83635;BME280;73596;49.482;11.238;2024-03-23T06:26:19;96880.84;;;9.26;78.65
83635;BME280;73596;49.482;11.238;2024-03-23T06:28:45;96894.56;;;9.36;78.53
83635;BME280;73596;49.482;11.238;2024-03-23T06:31:10;96895.31;;;9.48;80.03
83635;BME280;73596;49.482;11.238;2024-03-23T06:33:36;96876.59;;;9.46;80.95
83635;BME280;73596;49.482;11.238;2024-03-23T06:36:01;96880.91;;;9.45;81.35
83635;BME280;73596;49.482;11.238;2024-03-23T06:38:28;96889.72;;;9.43;82.59
83635;BME280;73596;49.482;11.238;2024-03-23T06:40:53;96884.31;;;9.46;82.53
83635;BME280;73596;49.482;11.238;2024-03-23T06:43:19;96887.81;;;9.45;82.83
83635;BME280;73596;49.482;11.238;2024-03-23T06:45:44;96889.31;;;9.38;82.77
83635;BME280;73596;49.482;11.238;2024-03-23T06:48:09;96899.19;;;9.33;81.62
83635;BME280;73596;49.482;11.238;2024-03-23T06:50:34;96885.06;;;9.27;83.00
83635;BME280;73596;49.482;11.238;2024-03-23T06:53:00;96885.97;;;9.26;83.53
83635;BME280;73596;49.482;11.238;2024-03-23T06:55:30;96878.16;;;9.37;82.60
83635;BME280;73596;49.482;11.238;2024-03-23T06:57:55;96866.94;;;9.38;82.31
83635;BME280;73596;49.482;11.238;2024-03-23T07:00:20;96871.13;;;9.39;82.37
83635;BME280;73596;49.482;11.238;2024-03-23T07:02:45;96870.44;;;9.37;82.45
83635;BME280;73596;49.482;11.238;2024-03-23T07:05:11;96873.69;;;9.39;82.33
83635;BME280;73596;49.482;11.238;2024-03-23T07:07:38;96875.94;;;9.53;80.56
83635;BME280;73596;49.482;11.238;2024-03-23T07:10:04;96884.34;;;9.55;80.98
83635;BME280;73596;49.482;11.238;2024-03-23T07:12:30;96881.06;;;9.53;80.55
83635;BME280;73596;49.482;11.238;2024-03-23T07:14:55;96893.16;;;9.63;80.33
83635;BME280;73596;49.482;11.238;2024-03-23T07:17:20;96894.81;;;9.64;79.95
83635;BME280;73596;49.482;11.238;2024-03-23T07:19:46;96892.22;;;9.64;80.47
83635;BME280;73596;49.482;11.238;2024-03-23T07:22:11;96886.16;;;9.84;79.64
83635;BME280;73596;49.482;11.238;2024-03-23T07:24:36;96918.56;;;9.77;79.70
83635;BME280;73596;49.482;11.238;2024-03-23T07:27:04;96926.03;;;9.80;79.75
83635;BME280;73596;49.482;11.238;2024-03-23T07:29:29;96913.44;;;9.86;79.62
83635;BME280;73596;49.482;11.238;2024-03-23T07:31:54;96906.22;;;9.80;79.62
83635;BME280;73596;49.482;11.238;2024-03-23T07:34:20;96907.16;;;9.79;79.31
83635;BME280;73596;49.482;11.238;2024-03-23T07:36:45;96908.91;;;9.69;79.54
83635;BME280;73596;49.482;11.238;2024-03-23T07:39:10;96912.97;;;9.62;80.36
83635;BME280;73596;49.482;11.238;2024-03-23T07:41:36;96912.16;;;9.62;80.56
83635;BME280;73596;49.482;11.238;2024-03-23T07:44:02;96910.53;;;9.61;80.46
83635;BME280;73596;49.482;11.238;2024-03-23T07:46:27;96912.03;;;9.63;80.44
83635;BME280;73596;49.482;11.238;2024-03-23T07:48:53;96919.59;;;9.55;80.35
83635;BME280;73596;49.482;11.238;2024-03-23T07:51:20;96928.69;;;9.59;80.34
83635;BME280;73596;49.482;11.238;2024-03-23T07:53:46;96932.25;;;9.58;80.52
83635;BME280;73596;49.482;11.238;2024-03-23T07:56:12;96949.31;;;9.59;80.31
83635;BME280;73596;49.482;11.238;2024-03-23T07:58:40;96942.72;;;9.66;80.36
83635;BME280;73596;49.482;11.238;2024-03-23T08:01:07;96956.13;;;9.60;80.39
83635;BME280;73596;49.482;11.238;2024-03-23T08:03:36;96951.81;;;9.70;79.83
83635;BME280;73596;49.482;11.238;2024-03-23T08:08:38;96945.81;;;9.70;80.28
83635;BME280;73596;49.482;11.238;2024-03-23T08:11:04;96953.72;;;9.68;80.30
83635;BME280;73596;49.482;11.238;2024-03-23T08:13:30;96953.97;;;9.65;80.60
83635;BME280;73596;49.482;11.238;2024-03-23T08:15:59;96945.97;;;9.68;80.13
83635;BME280;73596;49.482;11.238;2024-03-23T08:18:25;96935.69;;;9.78;80.20
83635;BME280;73596;49.482;11.238;2024-03-23T08:21:04;96942.75;;;9.76;80.13
83635;BME280;73596;49.482;11.238;2024-03-23T08:23:31;96970.44;;;9.83;80.21
83635;BME280;73596;49.482;11.238;2024-03-23T08:25:59;96978.72;;;9.87;80.84
83635;BME280;73596;49.482;11.238;2024-03-23T08:28:25;97007.19;;;9.76;83.45
83635;BME280;73596;49.482;11.238;2024-03-23T08:30:52;97029.56;;;9.66;82.78
83635;BME280;73596;49.482;11.238;2024-03-23T08:33:17;97037.44;;;9.43;84.83
83635;BME280;73596;49.482;11.238;2024-03-23T08:35:53;97055.78;;;9.09;84.06
83635;BME280;73596;49.482;11.238;2024-03-23T08:38:18;97068.00;;;8.95;84.62
83635;BME280;73596;49.482;11.238;2024-03-23T08:40:43;97083.06;;;8.79;85.46
83635;BME280;73596;49.482;11.238;2024-03-23T08:43:08;97082.72;;;8.73;85.14
83635;BME280;73596;49.482;11.238;2024-03-23T08:45:34;97095.41;;;8.65;85.73
83635;BME280;73596;49.482;11.238;2024-03-23T08:47:59;97102.53;;;8.61;86.31
83635;BME280;73596;49.482;11.238;2024-03-23T08:50:24;97109.44;;;8.61;85.83
83635;BME280;73596;49.482;11.238;2024-03-23T08:52:50;97139.41;;;8.62;85.17
83635;BME280;73596;49.482;11.238;2024-03-23T08:55:16;97122.81;;;8.55;82.06
83635;BME280;73596;49.482;11.238;2024-03-23T08:57:41;97135.41;;;8.69;82.58
83635;BME280;73596;49.482;11.238;2024-03-23T09:00:08;97152.38;;;8.71;81.99
83635;BME280;73596;49.482;11.238;2024-03-23T09:02:36;97128.78;;;8.33;81.06
83635;BME280;73596;49.482;11.238;2024-03-23T09:05:02;97151.00;;;8.34;80.36
83635;BME280;73596;49.482;11.238;2024-03-23T09:07:30;97150.19;;;8.34;80.35
83635;BME280;73596;49.482;11.238;2024-03-23T09:09:55;97162.00;;;8.36;80.79
83635;BME280;73596;49.482;11.238;2024-03-23T09:12:21;97175.94;;;8.45;80.15
83635;BME280;73596;49.482;11.238;2024-03-23T09:14:46;97164.59;;;8.47;79.12
83635;BME280;73596;49.482;11.238;2024-03-23T09:17:11;97184.81;;;8.29;77.94
83635;BME280;73596;49.482;11.238;2024-03-23T09:19:36;97208.19;;;8.26;79.97
83635;BME280;73596;49.482;11.238;2024-03-23T09:22:02;97203.69;;;8.06;78.88
83635;BME280;73596;49.482;11.238;2024-03-23T09:24:27;97208.38;;;8.01;79.87
83635;BME280;73596;49.482;11.238;2024-03-23T09:26:52;97228.84;;;8.14;79.67
83635;BME280;73596;49.482;11.238;2024-03-23T09:29:18;97211.19;;;8.09;79.33
83635;BME280;73596;49.482;11.238;2024-03-23T09:31:43;97227.84;;;7.93;78.62
83635;BME280;73596;49.482;11.238;2024-03-23T09:34:08;97237.00;;;7.97;79.63
83635;BME280;73596;49.482;11.238;2024-03-23T09:36:35;97220.84;;;7.95;78.33
83635;BME280;73596;49.482;11.238;2024-03-23T09:39:00;97218.53;;;7.92;78.06
83635;BME280;73596;49.482;11.238;2024-03-23T09:41:25;97218.84;;;7.76;79.56
83635;BME280;73596;49.482;11.238;2024-03-23T09:43:54;97237.94;;;7.61;80.64
83635;BME280;73596;49.482;11.238;2024-03-23T09:46:19;97240.66;;;7.71;81.32
83635;BME280;73596;49.482;11.238;2024-03-23T09:48:46;97253.34;;;7.96;76.54
83635;BME280;73596;49.482;11.238;2024-03-23T09:51:12;97261.00;;;8.19;75.48
83635;BME280;73596;49.482;11.238;2024-03-23T09:53:37;97252.19;;;8.35;74.41
83635;BME280;73596;49.482;11.238;2024-03-23T09:56:03;97247.50;;;8.62;74.42
83635;BME280;73596;49.482;11.238;2024-03-23T09:58:29;97245.97;;;8.70;72.10
83635;BME280;73596;49.482;11.238;2024-03-23T10:00:59;97255.56;;;8.68;70.86
83635;BME280;73596;49.482;11.238;2024-03-23T10:03:24;97254.53;;;8.60;71.64
83635;BME280;73596;49.482;11.238;2024-03-23T10:06:11;97260.13;;;8.54;71.89
83635;BME280;73596;49.482;11.238;2024-03-23T10:08:37;97274.31;;;8.59;72.56
83635;BME280;73596;49.482;11.238;2024-03-23T10:11:16;97279.31;;;8.61;71.08
83635;BME280;73596;49.482;11.238;2024-03-23T10:13:42;97281.19;;;8.59;70.99
83635;BME280;73596;49.482;11.238;2024-03-23T10:16:09;97280.03;;;8.52;71.16
83635;BME280;73596;49.482;11.238;2024-03-23T10:18:42;97266.44;;;8.61;68.46
83635;BME280;73596;49.482;11.238;2024-03-23T10:21:11;97269.75;;;8.52;68.09
83635;BME280;73596;49.482;11.238;2024-03-23T10:23:38;97278.59;;;8.48;69.04
83635;BME280;73596;49.482;11.238;2024-03-23T10:26:24;97290.84;;;8.22;66.17
83635;BME280;73596;49.482;11.238;2024-03-23T10:28:57;97296.19;;;8.19;68.84
83635;BME280;73596;49.482;11.238;2024-03-23T10:31:33;97303.69;;;8.22;68.02
83635;BME280;73596;49.482;11.238;2024-03-23T10:34:04;97299.59;;;8.19;67.69
83635;BME280;73596;49.482;11.238;2024-03-23T10:36:30;97313.34;;;8.07;67.26
83635;BME280;73596;49.482;11.238;2024-03-23T10:38:56;97328.69;;;7.85;68.61
83635;BME280;73596;49.482;11.238;2024-03-23T10:41:26;97354.44;;;7.73;70.03
83635;BME280;73596;49.482;11.238;2024-03-23T10:43:53;97352.75;;;7.60;70.40
83635;BME280;73596;49.482;11.238;2024-03-23T10:46:22;97352.59;;;7.51;70.20
83635;BME280;73596;49.482;11.238;2024-03-23T10:48:48;97345.88;;;7.61;70.46
83635;BME280;73596;49.482;11.238;2024-03-23T10:51:14;97333.69;;;7.76;69.95
83635;BME280;73596;49.482;11.238;2024-03-23T10:53:39;97312.69;;;7.82;71.03
83635;BME280;73596;49.482;11.238;2024-03-23T10:56:05;97311.78;;;7.94;71.02
83635;BME280;73596;49.482;11.238;2024-03-23T10:58:38;97325.97;;;7.99;69.50
83635;BME280;73596;49.482;11.238;2024-03-23T11:01:04;97339.31;;;8.04;67.86
83635;BME280;73596;49.482;11.238;2024-03-23T11:03:30;97360.31;;;7.98;68.76
83635;BME280;73596;49.482;11.238;2024-03-23T11:05:56;97355.50;;;7.94;66.12
83635;BME280;73596;49.482;11.238;2024-03-23T11:08:37;97353.50;;;7.97;66.69
83635;BME280;73596;49.482;11.238;2024-03-23T11:11:19;97330.16;;;8.00;64.18
83635;BME280;73596;49.482;11.238;2024-03-23T11:13:49;97319.03;;;8.00;63.92
83635;BME280;73596;49.482;11.238;2024-03-23T11:16:36;97316.44;;;7.89;63.55
83635;BME280;73596;49.482;11.238;2024-03-23T11:19:36;97315.84;;;7.85;63.91
83635;BME280;73596;49.482;11.238;2024-03-23T11:22:02;97330.13;;;7.89;64.53
83635;BME280;73596;49.482;11.238;2024-03-23T11:24:28;97316.31;;;7.90;64.49
83635;BME280;73596;49.482;11.238;2024-03-23T11:26:54;97313.69;;;8.03;65.34
83635;BME280;73596;49.482;11.238;2024-03-23T11:29:19;97308.59;;;8.25;64.93
83635;BME280;73596;49.482;11.238;2024-03-23T11:31:49;97312.66;;;8.51;64.39
83635;BME280;73596;49.482;11.238;2024-03-23T11:34:16;97311.28;;;8.80;64.98
83635;BME280;73596;49.482;11.238;2024-03-23T11:36:42;97308.22;;;9.20;61.70
83635;BME280;73596;49.482;11.238;2024-03-23T11:39:18;97313.38;;;9.20;61.30
83635;BME280;73596;49.482;11.238;2024-03-23T11:41:47;97313.84;;;9.36;60.93
83635;BME280;73596;49.482;11.238;2024-03-23T11:44:26;97323.72;;;9.63;58.23
83635;BME280;73596;49.482;11.238;2024-03-23T11:46:52;97330.88;;;9.59;57.23
83635;BME280;73596;49.482;11.238;2024-03-23T11:51:50;97358.09;;;9.19;57.60
83635;BME280;73596;49.482;11.238;2024-03-23T11:54:16;97351.56;;;9.15;59.01
83635;BME280;73596;49.482;11.238;2024-03-23T11:57:03;97354.59;;;9.09;58.76
83635;BME280;73596;49.482;11.238;2024-03-23T11:59:33;97358.22;;;9.17;59.27
83635;BME280;73596;49.482;11.238;2024-03-23T12:01:58;97346.97;;;9.40;59.24
83635;BME280;73596;49.482;11.238;2024-03-23T12:04:30;97345.41;;;9.60;57.07
83635;BME280;73596;49.482;11.238;2024-03-23T12:07:15;97353.44;;;9.78;56.56
83635;BME280;73596;49.482;11.238;2024-03-23T12:09:43;97346.75;;;9.86;53.97
83635;BME280;73596;49.482;11.238;2024-03-23T12:12:13;97354.03;;;9.81;55.12
83635;BME280;73596;49.482;11.238;2024-03-23T12:14:40;97349.13;;;9.78;55.81
83635;BME280;73596;49.482;11.238;2024-03-23T12:17:13;97343.28;;;9.97;55.52
83635;BME280;73596;49.482;11.238;2024-03-23T12:19:39;97346.91;;;10.16;54.20
83635;BME280;73596;49.482;11.238;2024-03-23T12:22:05;97324.28;;;10.30;50.92
83635;BME280;73596;49.482;11.238;2024-03-23T12:24:32;97334.44;;;10.42;49.99
83635;BME280;73596;49.482;11.238;2024-03-23T12:27:00;97347.16;;;10.34;48.84
83635;BME280;73596;49.482;11.238;2024-03-23T12:29:28;97335.38;;;10.41;49.50
83635;BME280;73596;49.482;11.238;2024-03-23T12:31:53;97334.25;;;10.34;50.52
83635;BME280;73596;49.482;11.238;2024-03-23T12:34:18;97329.19;;;10.33;50.57
83635;BME280;73596;49.482;11.238;2024-03-23T12:36:43;97328.00;;;10.16;50.13
83635;BME280;73596;49.482;11.238;2024-03-23T12:39:09;97312.91;;;10.32;48.74
83635;BME280;73596;49.482;11.238;2024-03-23T12:41:34;97333.06;;;10.38;47.47
83635;BME280;73596;49.482;11.238;2024-03-23T12:43:59;97330.84;;;10.34;44.35
83635;BME280;73596;49.482;11.238;2024-03-23T12:46:24;97341.22;;;10.43;43.32
83635;BME280;73596;49.482;11.238;2024-03-23T12:48:50;97319.94;;;10.51;43.69
83635;BME280;73596;49.482;11.238;2024-03-23T12:51:15;97307.44;;;10.46;43.77
83635;BME280;73596;49.482;11.238;2024-03-23T12:53:40;97305.53;;;10.48;46.38
83635;BME280;73596;49.482;11.238;2024-03-23T12:56:05;97308.94;;;10.49;43.79
83635;BME280;73596;49.482;11.238;2024-03-23T12:58:31;97294.56;;;10.35;45.83
83635;BME280;73596;49.482;11.238;2024-03-23T13:00:58;97303.09;;;10.26;46.29
83635;BME280;73596;49.482;11.238;2024-03-23T13:03:23;97302.25;;;10.26;46.21
83635;BME280;73596;49.482;11.238;2024-03-23T13:05:52;97312.53;;;10.37;46.31
83635;BME280;73596;49.482;11.238;2024-03-23T13:08:17;97314.34;;;10.25;47.69
83635;BME280;73596;49.482;11.238;2024-03-23T13:10:42;97317.31;;;10.41;48.33
83635;BME280;73596;49.482;11.238;2024-03-23T13:13:08;97323.22;;;10.53;47.56
83635;BME280;73596;49.482;11.238;2024-03-23T13:15:33;97321.66;;;10.41;48.24
83635;BME280;73596;49.482;11.238;2024-03-23T13:17:58;97322.88;;;10.37;47.22
83635;BME280;73596;49.482;11.238;2024-03-23T13:20:24;97321.84;;;10.28;46.72
83635;BME280;73596;49.482;11.238;2024-03-23T13:22:49;97315.66;;;9.88;46.93
83635;BME280;73596;49.482;11.238;2024-03-23T13:25:16;97322.50;;;9.78;48.15
83635;BME280;73596;49.482;11.238;2024-03-23T13:27:43;97317.81;;;9.72;47.74
83635;BME280;73596;49.482;11.238;2024-03-23T13:30:09;97312.78;;;9.70;48.36
83635;BME280;73596;49.482;11.238;2024-03-23T13:32:34;97316.69;;;9.65;48.13
83635;BME280;73596;49.482;11.238;2024-03-23T13:35:00;97308.63;;;9.47;46.20
83635;BME280;73596;49.482;11.238;2024-03-23T13:37:25;97309.09;;;9.52;46.99
83635;BME280;73596;49.482;11.238;2024-03-23T13:39:51;97305.88;;;9.71;48.69
83635;BME280;73596;49.482;11.238;2024-03-23T13:42:16;97314.78;;;9.67;48.17
83635;BME280;73596;49.482;11.238;2024-03-23T13:44:41;97310.38;;;9.89;47.24
83635;BME280;73596;49.482;11.238;2024-03-23T13:47:06;97313.84;;;9.99;45.46
83635;BME280;73596;49.482;11.238;2024-03-23T13:49:32;97327.56;;;10.00;44.64
83635;BME280;73596;49.482;11.238;2024-03-23T13:51:58;97312.72;;;9.92;45.70
83635;BME280;73596;49.482;11.238;2024-03-23T13:54:27;97319.31;;;9.85;44.82